Flight Track Log - Related Links

Times and Time Zones

All times are in EDT time to prevent confusion due to time zone crossing. See the SAS215 flight status page for this flight to view local times or setup timezone preferences in your user account.

Time Position Orientation Groundspeed Altitude Reporting Facility
EDT Latitude Longitude Course Direction KTS MPH feet Rate Location/Type
Thu 09:37:22 AM 60.1850 11.0740 194° South 142 163 1,400  Level FlightAware ADS-B
Thu 09:37:57 AM 60.1640 11.0550 204° Southwest 173 199 2,400 1,425 Climbing FlightAware ADS-B
Thu 09:38:42 AM 60.1470 10.9770 246° West 230 265 3,300 1,832 Climbing FlightAware ADS-B
Thu 09:39:32 AM 60.1070 10.9020 223° Southwest 258 297 5,300 2,442 Climbing FlightAware ADS-B
Thu 09:40:08 AM 60.0680 10.8640 206° Southwest 267 307 6,800 2,720 Climbing FlightAware ADS-B
Thu 09:40:47 AM 60.0260 10.8230 206° Southwest 268 308 8,700 2,810 Climbing FlightAware ADS-B
Thu 09:41:27 AM 59.9800 10.7780 206° Southwest 276 318 10,500 2,100 Climbing FlightAware ADS-B
Thu 09:42:07 AM 59.9290 10.7280 206° Southwest 312 359 11,500 2,148 Climbing FlightAware ADS-B
Thu 09:42:48 AM 59.8770 10.6770 206° Southwest 319 367 13,400 2,862 Climbing FlightAware ADS-B
Thu 09:43:12 AM 59.8450 10.6460 206° Southwest 319 367 14,600 3,043 Climbing FlightAware ADS-B
Thu 09:43:57 AM 59.7840 10.5870 206° Southwest 322 371 16,900 3,075 Climbing FlightAware ADS-B
Thu 09:44:32 AM 59.7370 10.5420 206° Southwest 325 374 18,700 3,040 Climbing FlightAware ADS-B
Thu 09:45:12 AM 59.6840 10.4910 206° Southwest 333 383 20,700 2,753 Climbing FlightAware ADS-B
Thu 09:45:57 AM 59.6220 10.4320 206° Southwest 341 392 22,600 2,612 Climbing FlightAware ADS-B
Thu 09:46:37 AM 59.5580 10.3900 198° South 360 414 24,400 3,067 Climbing FlightAware ADS-B
Thu 09:47:27 AM 59.4770 10.3620 190° South 349 402 27,200 2,541 Climbing FlightAware ADS-B
Thu 09:48:02 AM 59.4220 10.3430 190° South 348 400 28,000 558 Climbing FlightAware ADS-B
Thu 09:48:53 AM 59.3530 10.2730 207° Southwest 334 384 28,000  Level FlightAware ADS-B
Thu 09:49:33 AM 59.3030 10.2030 216° Southwest 337 388 28,000  Level FlightAware ADS-B
Thu 09:50:41 AM 59.2180 10.0800 217° Southwest 337 388 28,000 -474 Level FlightAware ADS-B
Thu 09:51:27 AM 59.1700 9.9800 227° Southwest 324 373 27,100 -1,551 Descending FlightAware ADS-B
Thu 09:52:10 AM 59.1270 9.8880 228° Southwest 315 362 25,700 -1,974 Descending FlightAware ADS-B
Thu 09:52:43 AM 59.0960 9.8200 228° Southwest 310 357 24,600 -1,952 Descending FlightAware ADS-B
Thu 09:53:33 AM 59.0480 9.7160 228° Southwest 302 348 23,000 -1,898 Descending FlightAware ADS-B
Thu 09:54:21 AM 59.0030 9.6210 227° Southwest 295 339 21,500 -1,870 Descending FlightAware ADS-B
Thu 09:54:50 AM 58.9770 9.5650 228° Southwest 293 337 20,600 -1,859 Descending FlightAware ADS-B
Thu 09:55:32 AM 58.9390 9.4840 228° Southwest 288 331 19,300 -1,835 Descending FlightAware ADS-B
Thu 09:56:15 AM 58.9020 9.4050 228° Southwest 283 326 18,000 -1,756 Descending FlightAware ADS-B
Thu 09:56:54 AM 58.8680 9.3330 228° Southwest 279 321 16,900 -1,737 Descending FlightAware ADS-B
Thu 09:57:31 AM 58.8350 9.2630 228° Southwest 278 320 15,800 -1,800 Descending FlightAware ADS-B
Thu 09:58:14 AM 58.7980 9.1850 228° Southwest 278 320 14,500 -1,773 Descending FlightAware ADS-B
Thu 09:58:59 AM 58.7580 9.1010 227° Southwest 278 320 13,200 -1,714 Descending FlightAware ADS-B
Thu 09:59:38 AM 58.7240 9.0310 227° Southwest 277 319 12,100 -1,742 Descending FlightAware ADS-B
Thu 10:00:01 AM 58.7040 8.9880 228° Southwest 278 320 11,400 -1,770 Descending FlightAware ADS-B
Thu 10:00:39 AM 58.6710 8.9200 227° Southwest 277 319 10,300 -1,259 Descending FlightAware ADS-B
Thu 10:01:22 AM 58.6360 8.8470 227° Southwest 251 289 9,700 -1,040 Descending FlightAware ADS-B
Thu 10:01:54 AM 58.6110 8.7950 227° Southwest 249 287 9,000 -1,397 Descending FlightAware ADS-B
Thu 10:02:35 AM 58.5790 8.7290 227° Southwest 244 281 8,000 -1,390 Descending FlightAware ADS-B
Thu 10:03:16 AM 58.5470 8.6640 227° Southwest 241 277 7,100 -1,333 Descending FlightAware ADS-B
Thu 10:03:47 AM 58.5240 8.6180 226° Southwest 237 273 6,400 -1,273 Descending FlightAware ADS-B
Thu 10:04:22 AM 58.4980 8.5650 227° Southwest 232 267 5,700 -1,183 Descending FlightAware ADS-B
Thu 10:04:58 AM 58.4720 8.5110 227° Southwest 227 261 5,000 -1,247 Descending FlightAware ADS-B
Thu 10:05:39 AM 58.4420 8.4510 226° Southwest 224 258 4,100 -989 Descending FlightAware ADS-B
Thu 10:06:29 AM 58.4090 8.3820 228° Southwest 205 236 3,500 -698 Descending FlightAware ADS-B
Thu 10:07:05 AM 58.3850 8.3340 226° Southwest 211 243 3,100 -320 Descending FlightAware ADS-B
Thu 10:07:44 AM 58.3560 8.2860 221° Southwest 208 239 3,100  Level FlightAware ADS-B
Thu 10:08:21 AM 58.3300 8.2530 214° Southwest 189 217 3,100 -316 Level FlightAware ADS-B
Thu 10:09:00 AM 58.3020 8.2150 215° Southwest 177 204 2,700 -868 Descending FlightAware ADS-B
Thu 10:09:37 AM 58.2780 8.1830 215° Southwest 175 201 2,000 -1,105 Descending FlightAware ADS-B
Thu 10:10:16 AM 58.2540 8.1510 215° Southwest 144 166 1,300 -857 Descending FlightAware ADS-B
Thu 10:11:01 AM 58.2320 8.1220 215° Southwest 126 145 800 -774 Descending FlightAware ADS-B
Thu 10:11:49 AM 58.2100 8.0930 215° Southwest 125 144 100 -875 Descending FlightAware ADS-B

Login

Don't have an account? Register now (free) for customized features, flight alerts, and more!